Terminal Aerodrome Forecast
Issued by NWS Austin/San Antonio, TX

Home | Current Version | Previous Version | Text Only | Print | Product List | Glossary On
Versions: 1 2 3 4 5 6 7 8 9 10 11 12
000
FTUS44 KEWX 272300
TAFDRT
TAF
KDRT 272335Z 2800/2824 12006KT P6SM SKC
     FM281000 11006KT P6SM BKN007
     FM281600 14010KT P6SM SCT025=

USA.gov is the U.S. government's official web portal to all federal, state and local government web resources and services.